METAR UND TAF INFORMATION
NZAA 210600Z AUTO 22010KT 9999 NCD 17/13 Q1025 NOSIG

 FLUGHAFENKARTE

 RUNWAY INFORMATION
Runway 05L Runway length 10197 ft Runway width 148 ft
Runway elevation 15 ft Runway displaced threshold 1148 ft Runway heading 71
Runway 23R Runway length 10197 ft Runway width 148 ft
Runway elevation 22 ft Runway displaced threshold 1542 ft Runway heading 251
Runway 05R Runway length 11926 ft Runway width 148 ft
Runway elevation 15 ft Runway displaced threshold 1125 ft Runway heading 72
Runway 23L Runway length 11926 ft Runway width 148 ft
Runway elevation 23 ft Runway displaced threshold 0 ft Runway heading 252

 AIRPORT FREQUENCIES
Type APP Name APP Frequency 124.3 MHZ
Type ATIS Name ATIS Frequency 127.8 MHZ
Type CLD Name CLNC DEL Frequency 128.2 MHZ
Type GND Name GND Frequency 121.9 MHZ
Type TWR Name TWR Frequency 118.7 MHZ

 AIRPORT NEAR NAVIGATION AIDS
Type VOR-DME Name Auckland Frequency 114800 KHZ
Type NDB Name Whitford Frequency 334 KHZ
Type NDB Name Westpoint Frequency 398 KHZ



Aktuelle Version 4.2.2: Changelog

Impressum | Datenschutzerklärung

Virtual Airlines Manager